createdAt,value
2022-08-07T00:02:41.691Z,10.32
2022-08-07T00:05:23.699Z,4.68
2022-08-07T00:08:25.732Z,6.28
2022-08-07T00:11:30.036Z,9.80
2022-08-07T00:14:36.104Z,5.93
2022-08-07T00:17:37.773Z,7.82
2022-08-07T00:20:41.206Z,6.40
2022-08-07T00:23:43.102Z,6.57
2022-08-07T00:26:49.296Z,5.07
2022-08-07T00:30:07.062Z,7.72
2022-08-07T00:33:28.694Z,7.40
2022-08-07T00:36:34.521Z,5.03
2022-08-07T00:39:36.167Z,5.90
2022-08-07T00:42:46.600Z,5.40
2022-08-07T00:45:51.963Z,8.63
2022-08-07T00:48:54.187Z,8.02
2022-08-07T00:51:57.163Z,6.07
2022-08-07T00:54:59.526Z,8.55
2022-08-07T00:58:06.825Z,11.10
2022-08-07T01:01:08.599Z,10.63
2022-08-07T01:04:10.285Z,11.40
2022-08-07T01:07:12.789Z,9.80
2022-08-07T01:10:15.161Z,7.90
2022-08-07T01:13:21.694Z,8.93
2022-08-07T01:16:30.444Z,6.32
2022-08-07T01:19:33.642Z,7.20
2022-08-07T01:22:46.640Z,8.13
2022-08-07T01:25:56.449Z,6.22
2022-08-07T01:28:58.360Z,5.38
2022-08-07T01:32:00.611Z,7.80
2022-08-07T01:35:07.657Z,6.55
2022-08-07T01:38:11.147Z,11.43
2022-08-07T01:41:26.018Z,11.75
2022-08-07T01:44:28.665Z,6.50
2022-08-07T01:48:27.350Z,9.02
2022-08-07T01:51:24.772Z,6.75
2022-08-07T01:54:32.834Z,7.03
2022-08-07T01:58:06.174Z,7.75
2022-08-07T02:01:25.664Z,7.35
2022-08-07T02:04:39.751Z,7.28
2022-08-07T02:08:02.147Z,6.00
2022-08-07T02:11:04.783Z,5.35
2022-08-07T02:14:08.912Z,7.45
2022-08-07T02:17:13.465Z,6.20
2022-08-07T02:20:28.825Z,6.57
2022-08-07T02:23:35.791Z,6.32
2022-08-07T02:26:39.521Z,6.70
2022-08-07T02:29:48.645Z,7.95
2022-08-07T02:33:00.534Z,6.45
2022-08-07T02:36:28.274Z,8.48
2022-08-07T02:40:02.044Z,6.60
2022-08-07T02:42:57.493Z,9.90
2022-08-07T02:46:02.352Z,6.43
2022-08-07T02:49:05.589Z,9.05
2022-08-07T02:52:13.012Z,10.07
2022-08-07T02:55:28.569Z,6.65
2022-08-07T02:58:47.699Z,9.32
2022-08-07T03:01:52.246Z,10.15
2022-08-07T03:04:59.759Z,7.55
2022-08-07T03:08:09.485Z,6.77
2022-08-07T03:11:12.356Z,9.43
2022-08-07T03:14:15.359Z,7.75
2022-08-07T03:17:17.296Z,7.50
2022-08-07T03:20:19.283Z,11.68
2022-08-07T03:23:21.805Z,6.60
2022-08-07T03:26:43.125Z,8.35
2022-08-07T03:29:57.009Z,8.90
2022-08-07T03:33:01.007Z,10.82
2022-08-07T03:36:02.989Z,8.15
2022-08-07T03:39:11.837Z,8.05
2022-08-07T03:42:17.296Z,7.28
2022-08-07T03:45:30.726Z,9.02
2022-08-07T03:48:35.111Z,6.15
2022-08-07T03:52:01.841Z,5.72
2022-08-07T03:55:07.420Z,8.70
2022-08-07T03:59:05.042Z,7.72
2022-08-07T04:01:33.805Z,7.30
2022-08-07T04:04:41.708Z,7.47
2022-08-07T04:07:48.334Z,8.25
2022-08-07T04:10:54.528Z,8.57
2022-08-07T04:14:37.358Z,7.10
2022-08-07T04:18:30.690Z,6.28
2022-08-07T04:20:57.618Z,9.73
2022-08-07T04:24:04.480Z,6.68
2022-08-07T04:27:15.374Z,6.47
2022-08-07T04:30:39.507Z,8.68
2022-08-07T04:33:46.063Z,6.82
2022-08-07T04:36:49.433Z,4.68
2022-08-07T04:39:51.268Z,5.43
2022-08-07T04:42:53.523Z,10.23
2022-08-07T04:46:01.227Z,8.85
2022-08-07T04:49:24.619Z,8.07
2022-08-07T04:52:51.904Z,6.28
2022-08-07T04:58:12.862Z,6.07
2022-08-07T05:00:11.169Z,8.35
2022-08-07T05:04:08.233Z,6.82
2022-08-07T05:07:27.596Z,10.57
2022-08-07T05:10:47.084Z,7.65
2022-08-07T05:14:55.368Z,4.93
2022-08-07T05:17:50.226Z,5.82
2022-08-07T05:20:57.589Z,4.65
2022-08-07T05:24:03.490Z,7.10
2022-08-07T05:27:07.901Z,6.60
2022-08-07T05:30:32.904Z,8.32
2022-08-07T05:33:37.047Z,4.80
2022-08-07T05:36:42.694Z,4.43
2022-08-07T05:40:17.926Z,6.43
2022-08-07T05:43:10.606Z,6.47
2022-08-07T05:46:13.576Z,4.10
2022-08-07T05:49:15.703Z,2.72
2022-08-07T05:52:20.109Z,6.60
2022-08-07T05:55:22.383Z,5.22
2022-08-07T05:58:36.968Z,4.68
2022-08-07T06:01:40.637Z,3.15
2022-08-07T06:04:50.796Z,4.65
2022-08-07T06:08:13.748Z,6.80
2022-08-07T06:11:15.174Z,4.13
2022-08-07T06:14:20.969Z,6.90
2022-08-07T06:17:30.575Z,3.40
2022-08-07T06:20:51.092Z,3.65
2022-08-07T06:24:38.211Z,4.50
2022-08-07T06:27:44.471Z,4.18
2022-08-07T06:30:52.832Z,5.97
2022-08-07T06:33:55.688Z,8.95
2022-08-07T06:36:58.394Z,3.20
2022-08-07T06:40:16.738Z,3.55
2022-08-07T06:43:24.474Z,2.90
2022-08-07T06:46:31.528Z,6.68
2022-08-07T06:49:51.516Z,4.95
2022-08-07T06:52:57.023Z,2.63
2022-08-07T06:56:02.114Z,5.63
2022-08-07T07:00:11.435Z,3.72
2022-08-07T07:02:53.611Z,3.30
2022-08-07T07:06:04.187Z,2.40
2022-08-07T07:09:36.245Z,7.43
2022-08-07T07:12:53.301Z,5.82
2022-08-07T07:16:00.932Z,3.17
2022-08-07T07:19:33.879Z,4.95
2022-08-07T07:22:39.871Z,4.75
2022-08-07T07:26:33.003Z,4.47
2022-08-07T07:29:57.007Z,2.85
2022-08-07T07:32:55.096Z,4.78
2022-08-07T07:36:05.524Z,2.60
2022-08-07T07:39:16.128Z,5.53
2022-08-07T07:42:25.809Z,2.38
2022-08-07T07:46:53.311Z,2.55
2022-08-07T07:48:59.817Z,2.53
2022-08-07T07:52:03.593Z,2.38
2022-08-07T07:55:09.019Z,3.08
2022-08-07T07:58:14.064Z,5.95
2022-08-07T08:02:03.245Z,2.85
2022-08-07T08:04:45.694Z,2.72
2022-08-07T08:08:01.190Z,2.42
2022-08-07T08:11:08.520Z,2.55
2022-08-07T08:14:10.979Z,4.32
2022-08-07T08:17:55.894Z,5.35
2022-08-07T08:20:38.717Z,1.75
2022-08-07T08:24:03.974Z,4.38
2022-08-07T08:27:09.663Z,1.20
2022-08-07T08:30:14.142Z,2.00
2022-08-07T08:33:18.767Z,2.92
2022-08-07T08:36:29.746Z,2.75
2022-08-07T08:39:39.240Z,6.77
2022-08-07T08:43:15.954Z,3.10
2022-08-07T08:46:44.813Z,2.08
2022-08-07T08:50:34.743Z,2.38
2022-08-07T08:53:59.983Z,1.85
2022-08-07T08:57:08.203Z,1.20
2022-08-07T09:00:11.704Z,3.33
2022-08-07T09:03:47.555Z,2.90
2022-08-07T09:06:55.580Z,3.72
2022-08-07T09:10:07.906Z,2.63
2022-08-07T09:13:14.817Z,3.47
2022-08-07T09:16:39.664Z,0.68
2022-08-07T09:20:35.042Z,2.45
2022-08-07T09:24:31.665Z,2.67
2022-08-07T09:28:00.691Z,2.72
2022-08-07T09:31:07.713Z,1.65
2022-08-07T09:34:55.964Z,1.00
2022-08-07T09:38:13.202Z,2.25
2022-08-07T09:41:43.539Z,4.32
2022-08-07T09:47:50.389Z,1.80
2022-08-07T09:50:00.886Z,3.75
2022-08-07T09:52:57.833Z,3.10
2022-08-07T09:56:05.527Z,3.10
2022-08-07T09:59:35.816Z,3.95
2022-08-07T10:04:07.083Z,3.10
2022-08-07T10:07:24.612Z,2.13
2022-08-07T10:11:07.615Z,0.98
2022-08-07T10:14:31.442Z,2.08
2022-08-07T10:18:02.937Z,4.28
2022-08-07T10:21:19.720Z,1.10
2022-08-07T10:25:04.734Z,4.50
2022-08-07T10:28:37.568Z,1.00
2022-08-07T10:32:00.224Z,1.33
2022-08-07T10:35:56.499Z,3.33
2022-08-07T10:39:19.613Z,1.52
2022-08-07T10:42:43.271Z,2.58
2022-08-07T10:45:58.441Z,1.35
2022-08-07T10:49:14.436Z,1.30
2022-08-07T10:52:31.703Z,3.10
2022-08-07T10:55:50.503Z,1.33
2022-08-07T10:59:40.051Z,1.23
2022-08-07T11:03:00.943Z,2.10
2022-08-07T11:06:18.188Z,1.95
2022-08-07T11:10:09.132Z,3.70
2022-08-07T11:13:02.080Z,1.90
2022-08-07T11:16:19.666Z,2.15
2022-08-07T11:19:40.021Z,1.40
2022-08-07T11:23:26.381Z,1.52
2022-08-07T11:26:49.830Z,2.42
2022-08-07T11:30:17.520Z,3.58
2022-08-07T11:33:59.607Z,1.98
2022-08-07T11:40:10.514Z,3.17
2022-08-07T11:43:41.213Z,1.92
2022-08-07T11:47:04.398Z,2.22
2022-08-07T11:50:30.388Z,3.65
2022-08-07T11:54:11.731Z,4.47
2022-08-07T11:57:57.710Z,2.40
2022-08-07T12:01:22.206Z,1.15
2022-08-07T12:04:57.789Z,2.17
2022-08-07T12:08:11.507Z,0.95
2022-08-07T12:12:10.899Z,2.70
2022-08-07T12:15:46.056Z,3.50
2022-08-07T12:19:14.818Z,3.35
2022-08-07T12:22:56.463Z,1.50
2022-08-07T12:26:30.037Z,2.17
2022-08-07T12:29:40.418Z,1.73
2022-08-07T12:32:58.290Z,3.78
2022-08-07T12:36:02.253Z,2.55
2022-08-07T12:39:41.978Z,1.73
2022-08-07T12:42:31.892Z,2.63
2022-08-07T12:45:44.844Z,1.63
2022-08-07T12:48:57.465Z,1.15
2022-08-07T12:52:46.250Z,0.90
2022-08-07T12:56:02.437Z,3.30
2022-08-07T12:59:08.344Z,1.17
2022-08-07T13:02:26.669Z,1.33
2022-08-07T13:06:21.666Z,3.88
2022-08-07T13:10:21.959Z,2.42
2022-08-07T13:17:18.341Z,3.25
2022-08-07T13:20:36.906Z,2.83
2022-08-07T13:24:11.504Z,1.27
2022-08-07T13:28:06.309Z,2.90
2022-08-07T13:31:06.445Z,1.77
2022-08-07T13:34:35.706Z,1.67
2022-08-07T13:37:58.791Z,2.38
2022-08-07T13:41:47.269Z,2.15
2022-08-07T13:45:20.586Z,1.67
2022-08-07T13:48:27.585Z,1.10
2022-08-07T13:52:04.434Z,3.72
2022-08-07T13:55:06.458Z,1.90
2022-08-07T13:58:31.722Z,2.72
2022-08-07T14:01:51.614Z,3.05
2022-08-07T14:05:04.485Z,2.22
2022-08-07T14:08:08.699Z,1.40
2022-08-07T14:11:17.398Z,1.95
2022-08-07T14:14:22.350Z,2.30
2022-08-07T14:18:13.062Z,2.80
2022-08-07T14:21:08.084Z,2.45
2022-08-07T14:24:22.873Z,2.05
2022-08-07T14:28:10.332Z,1.83
2022-08-07T14:31:03.266Z,1.00
2022-08-07T14:34:07.355Z,3.72
2022-08-07T14:37:16.147Z,1.23
2022-08-07T14:40:26.361Z,2.33
2022-08-07T14:43:55.834Z,0.98
2022-08-07T14:47:08.654Z,3.72
2022-08-07T14:50:19.190Z,2.80
2022-08-07T14:54:05.930Z,2.10
2022-08-07T14:56:49.948Z,4.22
2022-08-07T15:00:05.237Z,5.22
2022-08-07T15:03:19.324Z,3.30
2022-08-07T15:06:25.204Z,5.70
2022-08-07T15:09:59.095Z,2.55
2022-08-07T15:12:54.975Z,3.85
2022-08-07T15:19:13.953Z,1.98
2022-08-07T15:25:46.841Z,2.40
2022-08-07T15:32:39.526Z,4.35
2022-08-07T15:36:04.868Z,2.22
2022-08-07T15:39:10.459Z,2.47
2022-08-07T15:42:51.796Z,3.13
2022-08-07T15:46:00.717Z,2.38
2022-08-07T15:49:14.433Z,3.00
2022-08-07T15:52:30.107Z,1.92
2022-08-07T15:56:02.463Z,4.88
2022-08-07T15:59:00.257Z,3.75
2022-08-07T16:02:03.337Z,2.95
2022-08-07T16:05:15.335Z,4.65
2022-08-07T16:08:33.455Z,11.00
2022-08-07T16:12:12.551Z,2.00
2022-08-07T16:15:55.209Z,4.53
2022-08-07T16:19:13.861Z,8.30
2022-08-07T16:22:54.228Z,7.78
2022-08-07T16:26:31.026Z,4.05
2022-08-07T16:30:09.325Z,2.28
2022-08-07T16:34:01.833Z,2.00
2022-08-07T16:38:03.478Z,4.25
2022-08-07T16:40:51.213Z,2.63
2022-08-07T16:47:56.515Z,2.67
2022-08-07T16:51:54.228Z,3.28
2022-08-07T16:55:11.499Z,1.80
2022-08-07T16:58:22.280Z,3.20
2022-08-07T17:01:34.263Z,3.42
2022-08-07T17:04:50.806Z,3.55
2022-08-07T17:07:58.155Z,2.70
2022-08-07T17:11:06.467Z,6.07
2022-08-07T17:14:17.855Z,5.65
2022-08-07T17:17:44.030Z,2.85
2022-08-07T17:20:49.544Z,1.95
2022-08-07T17:24:14.414Z,4.10
2022-08-07T17:27:32.607Z,6.00
2022-08-07T17:30:58.447Z,6.95
2022-08-07T17:34:34.754Z,9.57
2022-08-07T17:38:06.476Z,2.00
2022-08-07T17:42:04.347Z,2.65
2022-08-07T17:44:55.418Z,2.38
2022-08-07T17:48:06.591Z,4.65
2022-08-07T17:52:00.064Z,3.42
2022-08-07T17:55:55.782Z,3.25
2022-08-07T17:58:57.167Z,2.97
2022-08-07T18:02:15.910Z,7.20
2022-08-07T18:05:24.137Z,8.32
2022-08-07T18:08:31.494Z,3.63
2022-08-07T18:12:17.931Z,3.22
2022-08-07T18:21:04.028Z,3.47
2022-08-07T18:22:29.407Z,5.88
2022-08-07T18:25:39.237Z,2.47
2022-08-07T18:29:03.056Z,3.88
2022-08-07T18:32:34.402Z,4.28
2022-08-07T18:35:58.690Z,4.70
2022-08-07T18:40:06.953Z,4.05
2022-08-07T18:43:36.957Z,5.15
2022-08-07T18:46:51.559Z,6.50
2022-08-07T18:50:39.224Z,4.25
2022-08-07T18:53:48.843Z,4.20
2022-08-07T18:57:31.048Z,5.07
2022-08-07T19:00:43.005Z,4.43
2022-08-07T19:04:09.603Z,3.42
2022-08-07T19:07:51.875Z,4.97
2022-08-07T19:11:35.216Z,4.13
2022-08-07T19:15:00.678Z,2.97
2022-08-07T19:18:35.506Z,2.55
2022-08-07T19:22:31.259Z,4.47
2022-08-07T19:26:23.728Z,6.68
2022-08-07T19:31:05.750Z,3.65
2022-08-07T19:32:44.341Z,4.53
2022-08-07T19:36:01.427Z,5.88
2022-08-07T19:39:17.317Z,7.35
2022-08-07T19:42:47.142Z,5.43
2022-08-07T19:46:10.139Z,5.25
2022-08-07T19:49:19.796Z,5.93
2022-08-07T19:52:59.042Z,8.60
2022-08-07T19:57:51.537Z,6.55
2022-08-07T19:59:41.503Z,6.38
2022-08-07T20:02:51.934Z,7.45
2022-08-07T20:06:04.406Z,7.70
2022-08-07T20:09:07.448Z,8.25
2022-08-07T20:12:32.333Z,6.72
2022-08-07T20:15:43.880Z,5.15
2022-08-07T20:18:48.362Z,5.70
2022-08-07T20:21:51.909Z,6.93
2022-08-07T20:25:03.486Z,6.78
2022-08-07T20:28:10.844Z,6.93
2022-08-07T20:31:21.770Z,10.60
2022-08-07T20:34:49.266Z,7.93
2022-08-07T20:37:58.935Z,5.18
2022-08-07T20:41:05.634Z,6.38
2022-08-07T20:44:10.387Z,8.52
2022-08-07T20:47:17.804Z,6.38
2022-08-07T20:50:30.619Z,7.50
2022-08-07T20:54:03.141Z,4.28
2022-08-07T20:57:05.859Z,7.65
2022-08-07T21:00:11.069Z,5.75
2022-08-07T21:03:25.903Z,8.80
2022-08-07T21:06:31.610Z,6.38
2022-08-07T21:09:52.678Z,6.25
2022-08-07T21:13:00.422Z,5.97
2022-08-07T21:16:05.084Z,13.52
2022-08-07T21:19:13.845Z,14.25
2022-08-07T21:22:19.156Z,14.27
2022-08-07T21:25:42.398Z,8.90
2022-08-07T21:29:02.393Z,9.20
2022-08-07T21:32:48.589Z,9.43
2022-08-07T21:36:12.030Z,8.45
2022-08-07T21:39:47.691Z,9.18
2022-08-07T21:46:25.290Z,9.82
2022-08-07T21:50:02.872Z,7.25
2022-08-07T21:53:20.604Z,8.82
2022-08-07T21:56:49.113Z,6.68
2022-08-07T22:00:22.956Z,7.70
2022-08-07T22:03:40.834Z,7.50
2022-08-07T22:07:07.612Z,7.80
2022-08-07T22:10:12.824Z,12.60
2022-08-07T22:13:16.683Z,7.85
2022-08-07T22:16:49.032Z,5.18
2022-08-07T22:20:23.998Z,10.73
2022-08-07T22:23:41.320Z,8.77
2022-08-07T22:26:49.445Z,10.45
2022-08-07T22:30:06.235Z,13.52
2022-08-07T22:33:15.111Z,9.35
2022-08-07T22:36:28.465Z,16.42
2022-08-07T22:39:53.480Z,12.93
2022-08-07T22:43:03.210Z,12.30
2022-08-07T22:47:03.650Z,10.60
2022-08-07T22:49:57.067Z,12.38
2022-08-07T22:54:07.672Z,12.23
2022-08-07T22:57:16.973Z,11.32
2022-08-07T23:00:28.559Z,9.10
2022-08-07T23:04:04.882Z,9.43
2022-08-07T23:07:42.974Z,10.07
2022-08-07T23:11:12.838Z,9.40
2022-08-07T23:14:35.631Z,7.28
2022-08-07T23:18:02.036Z,10.13
2022-08-07T23:21:36.699Z,9.90
2022-08-07T23:25:20.937Z,9.05
2022-08-07T23:28:54.699Z,8.85
2022-08-07T23:34:21.412Z,8.25
2022-08-07T23:35:47.031Z,10.25
2022-08-07T23:39:22.459Z,9.45
2022-08-07T23:42:48.103Z,14.40
2022-08-07T23:49:50.401Z,9.77
2022-08-07T23:53:08.535Z,11.15
2022-08-07T23:56:26.521Z,17.05
